sensor_id;sensor_type;location;lat;lon;timestamp;pressure;altitude;pressure_sealevel;temperature;humidity
29383;BME280;16365;51.598;7.668;2023-02-21T00:01:37;101327.69;;;14.48;54.20
29383;BME280;16365;51.598;7.668;2023-02-21T00:04:22;101321.63;;;14.46;54.39
29383;BME280;16365;51.598;7.668;2023-02-21T00:07:07;101319.97;;;14.45;53.92
29383;BME280;16365;51.598;7.668;2023-02-21T00:09:52;101324.72;;;14.45;53.97
29383;BME280;16365;51.598;7.668;2023-02-21T00:12:37;101322.75;;;14.45;53.76
29383;BME280;16365;51.598;7.668;2023-02-21T00:15:22;101320.31;;;14.44;54.23
29383;BME280;16365;51.598;7.668;2023-02-21T00:18:07;101314.72;;;14.44;54.35
29383;BME280;16365;51.598;7.668;2023-02-21T00:20:52;101309.50;;;14.42;54.31
29383;BME280;16365;51.598;7.668;2023-02-21T00:23:37;101315.91;;;14.43;54.18
29383;BME280;16365;51.598;7.668;2023-02-21T00:26:22;101311.94;;;14.44;53.88
29383;BME280;16365;51.598;7.668;2023-02-21T00:29:07;101315.09;;;14.42;54.05
29383;BME280;16365;51.598;7.668;2023-02-21T00:31:52;101311.13;;;14.43;54.48
29383;BME280;16365;51.598;7.668;2023-02-21T00:34:38;101318.34;;;14.44;53.96
29383;BME280;16365;51.598;7.668;2023-02-21T00:37:23;101311.94;;;14.44;54.24
29383;BME280;16365;51.598;7.668;2023-02-21T00:40:11;101318.69;;;14.43;54.21
29383;BME280;16365;51.598;7.668;2023-02-21T00:42:56;101318.34;;;14.44;nan
29383;BME280;16365;51.598;7.668;2023-02-21T00:45:42;101317.53;;;14.44;54.40
29383;BME280;16365;51.598;7.668;2023-02-21T00:48:27;101311.94;;;14.44;54.29
29383;BME280;16365;51.598;7.668;2023-02-21T00:51:14;101316.38;;;14.45;54.03
29383;BME280;16365;51.598;7.668;2023-02-21T00:54:00;101323.91;;;14.44;54.20
29383;BME280;16365;51.598;7.668;2023-02-21T00:56:45;101321.47;;;14.43;54.38
29383;BME280;16365;51.598;7.668;2023-02-21T00:59:30;101303.56;;;14.44;54.06
29383;BME280;16365;51.598;7.668;2023-02-21T01:02:15;101302.75;;;14.43;54.17
29383;BME280;16365;51.598;7.668;2023-02-21T01:05:00;101302.41;;;14.45;54.20
29383;BME280;16365;51.598;7.668;2023-02-21T01:07:45;101298.00;;;14.44;54.46
29383;BME280;16365;51.598;7.668;2023-02-21T01:10:30;101299.63;;;14.45;54.50
29383;BME280;16365;51.598;7.668;2023-02-21T01:13:15;101295.22;;;14.44;54.17
29383;BME280;16365;51.598;7.668;2023-02-21T01:16:00;101298.00;;;14.44;54.50
29383;BME280;16365;51.598;7.668;2023-02-21T01:18:45;101299.16;;;14.43;54.18
29383;BME280;16365;51.598;7.668;2023-02-21T01:21:30;101299.16;;;14.43;54.46
29383;BME280;16365;51.598;7.668;2023-02-21T01:24:16;101298.34;;;14.42;54.17
29383;BME280;16365;51.598;7.668;2023-02-21T01:27:01;101298.34;;;14.42;54.44
29383;BME280;16365;51.598;7.668;2023-02-21T01:29:46;101297.53;;;14.42;54.25
29383;BME280;16365;51.598;7.668;2023-02-21T01:32:32;101299.50;;;14.41;53.94
29383;BME280;16365;51.598;7.668;2023-02-21T01:35:17;101296.72;;;14.41;54.45
29383;BME280;16365;51.598;7.668;2023-02-21T01:38:02;101306.72;;;14.42;54.04
29383;BME280;16365;51.598;7.668;2023-02-21T01:40:48;101294.75;;;14.42;54.56
29383;BME280;16365;51.598;7.668;2023-02-21T01:43:33;101297.53;;;14.42;54.15
29383;BME280;16365;51.598;7.668;2023-02-21T01:46:19;101282.78;;;14.41;54.71
29383;BME280;16365;51.598;7.668;2023-02-21T01:49:08;101287.50;;;14.40;54.15
29383;BME280;16365;51.598;7.668;2023-02-21T01:51:55;101293.94;;;14.41;54.53
29383;BME280;16365;51.598;7.668;2023-02-21T01:54:46;101289.47;;;14.40;54.32
29383;BME280;16365;51.598;7.668;2023-02-21T01:57:34;101291.47;;;14.39;54.21
29383;BME280;16365;51.598;7.668;2023-02-21T02:00:20;101288.81;;;14.43;54.10
29383;BME280;16365;51.598;7.668;2023-02-21T02:03:08;101275.22;;;14.42;54.57
29383;BME280;16365;51.598;7.668;2023-02-21T02:05:58;101282.41;;;14.43;54.15
29383;BME280;16365;51.598;7.668;2023-02-21T02:08:44;101281.75;;;14.46;54.00
29383;BME280;16365;51.598;7.668;2023-02-21T02:17:35;101285.41;;;14.37;54.39
29383;BME280;16365;51.598;7.668;2023-02-21T02:20:43;101289.22;;;14.33;54.59
29383;BME280;16365;51.598;7.668;2023-02-21T02:23:42;101285.63;;;14.32;54.37
29383;BME280;16365;51.598;7.668;2023-02-21T02:32:19;101282.69;;;14.29;54.76
29383;BME280;16365;51.598;7.668;2023-02-21T02:35:14;101288.25;;;14.29;54.87
29383;BME280;16365;51.598;7.668;2023-02-21T02:38:07;101285.13;;;14.30;54.39
29383;BME280;16365;51.598;7.668;2023-02-21T02:40:49;101279.06;;;14.28;54.23
29383;BME280;16365;51.598;7.668;2023-02-21T02:43:37;101274.31;;;14.29;54.47
29383;BME280;16365;51.598;7.668;2023-02-21T02:46:16;101275.94;;;14.30;54.39
29383;BME280;16365;51.598;7.668;2023-02-21T02:48:46;101284.31;;;14.30;54.36
29383;BME280;16365;51.598;7.668;2023-02-21T02:51:16;101281.06;;;14.28;54.94
29383;BME280;16365;51.598;7.668;2023-02-21T02:53:43;101274.66;;;14.27;54.53
29383;BME280;16365;51.598;7.668;2023-02-21T02:56:12;101281.72;;;14.25;54.43
29383;BME280;16365;51.598;7.668;2023-02-21T02:58:46;101272.06;;;14.22;54.63
29383;BME280;16365;51.598;7.668;2023-02-21T03:04:39;101276.00;;;14.21;54.93
29383;BME280;16365;51.598;7.668;2023-02-21T03:18:00;101280.75;;;14.21;54.57
29383;BME280;16365;51.598;7.668;2023-02-21T03:20:32;101268.31;;;14.18;55.11
29383;BME280;16365;51.598;7.668;2023-02-21T03:23:01;101269.00;;;14.15;55.35
29383;BME280;16365;51.598;7.668;2023-02-21T03:25:30;101267.38;;;14.14;55.29
29383;BME280;16365;51.598;7.668;2023-02-21T03:27:59;101264.56;;;14.14;55.25
29383;BME280;16365;51.598;7.668;2023-02-21T03:30:27;101261.31;;;14.12;54.93
29383;BME280;16365;51.598;7.668;2023-02-21T03:32:57;101259.66;;;14.11;54.90
29383;BME280;16365;51.598;7.668;2023-02-21T03:35:27;101262.81;;;14.09;55.66
29383;BME280;16365;51.598;7.668;2023-02-21T03:37:56;101260.81;;;14.10;55.14
29383;BME280;16365;51.598;7.668;2023-02-21T03:40:28;101260.00;;;14.09;55.45
29383;BME280;16365;51.598;7.668;2023-02-21T03:42:56;101260.81;;;14.10;55.16
29383;BME280;16365;51.598;7.668;2023-02-21T03:45:25;101265.59;;;14.09;55.26
29383;BME280;16365;51.598;7.668;2023-02-21T03:47:51;101268.38;;;14.09;55.43
29383;BME280;16365;51.598;7.668;2023-02-21T03:50:18;101261.19;;;14.08;54.96
29383;BME280;16365;51.598;7.668;2023-02-21T03:52:44;101268.72;;;14.08;55.26
29383;BME280;16365;51.598;7.668;2023-02-21T03:55:11;101264.28;;;14.07;55.14
29383;BME280;16365;51.598;7.668;2023-02-21T03:57:38;101266.25;;;14.06;55.19
29383;BME280;16365;51.598;7.668;2023-02-21T04:00:06;101264.63;;;14.05;55.41
29383;BME280;16365;51.598;7.668;2023-02-21T04:02:32;101260.22;;;14.04;55.33
29383;BME280;16365;51.598;7.668;2023-02-21T04:04:59;101270.22;;;14.05;55.39
29383;BME280;16365;51.598;7.668;2023-02-21T04:07:25;101265.44;;;14.06;55.88
29383;BME280;16365;51.598;7.668;2023-02-21T04:09:51;101263.47;;;14.06;55.50
29383;BME280;16365;51.598;7.668;2023-02-21T04:12:18;101259.56;;;14.07;55.65
29383;BME280;16365;51.598;7.668;2023-02-21T04:14:45;101270.34;;;14.09;55.61
29383;BME280;16365;51.598;7.668;2023-02-21T04:17:11;101268.38;;;14.09;55.41
29383;BME280;16365;51.598;7.668;2023-02-21T04:19:39;101276.41;;;14.11;55.86
29383;BME280;16365;51.598;7.668;2023-02-21T04:22:05;101273.28;;;14.12;55.29
29383;BME280;16365;51.598;7.668;2023-02-21T04:24:32;101272.13;;;14.13;55.87
29383;BME280;16365;51.598;7.668;2023-02-21T04:26:59;101277.72;;;14.13;55.41
29383;BME280;16365;51.598;7.668;2023-02-21T04:29:27;101287.34;;;14.16;55.83
29383;BME280;16365;51.598;7.668;2023-02-21T04:31:54;101285.38;;;14.17;55.38
29383;BME280;16365;51.598;7.668;2023-02-21T04:34:21;101285.06;;;14.18;55.61
29383;BME280;16365;51.598;7.668;2023-02-21T04:36:47;101285.38;;;14.17;55.34
29383;BME280;16365;51.598;7.668;2023-02-21T04:39:14;101284.25;;;14.18;55.56
29383;BME280;16365;51.598;7.668;2023-02-21T04:41:41;101290.63;;;14.18;55.63
29383;BME280;16365;51.598;7.668;2023-02-21T04:44:07;101290.97;;;14.17;55.13
29383;BME280;16365;51.598;7.668;2023-02-21T04:46:35;101286.22;;;14.17;55.11
29383;BME280;16365;51.598;7.668;2023-02-21T04:49:02;101294.59;;;14.17;55.08
29383;BME280;16365;51.598;7.668;2023-02-21T04:51:28;101296.53;;;14.17;55.48
29383;BME280;16365;51.598;7.668;2023-02-21T04:53:56;101288.50;;;14.15;55.36
29383;BME280;16365;51.598;7.668;2023-02-21T04:56:24;101284.91;;;14.14;55.07
29383;BME280;16365;51.598;7.668;2023-02-21T04:58:55;101279.00;;;14.16;55.26
29383;BME280;16365;51.598;7.668;2023-02-21T05:01:22;101289.47;;;14.19;55.14
29383;BME280;16365;51.598;7.668;2023-02-21T05:03:55;101283.09;;;14.19;55.62
29383;BME280;16365;51.598;7.668;2023-02-21T05:06:24;101287.50;;;14.20;55.46
29383;BME280;16365;51.598;7.668;2023-02-21T05:08:51;101283.56;;;14.21;55.28
29383;BME280;16365;51.598;7.668;2023-02-21T05:11:18;101283.56;;;14.21;55.29
29383;BME280;16365;51.598;7.668;2023-02-21T05:13:45;101281.25;;;14.23;55.51
29383;BME280;16365;51.598;7.668;2023-02-21T05:16:12;101286.84;;;14.23;55.34
29383;BME280;16365;51.598;7.668;2023-02-21T05:18:43;101287.16;;;14.21;54.90
29383;BME280;16365;51.598;7.668;2023-02-21T05:21:12;101284.38;;;14.21;55.05
29383;BME280;16365;51.598;7.668;2023-02-21T05:23:39;101289.94;;;14.21;55.45
29383;BME280;16365;51.598;7.668;2023-02-21T05:26:11;101284.72;;;14.20;55.28
29383;BME280;16365;51.598;7.668;2023-02-21T05:28:39;101285.53;;;14.20;55.42
29383;BME280;16365;51.598;7.668;2023-02-21T05:31:06;101288.31;;;14.20;55.51
29383;BME280;16365;51.598;7.668;2023-02-21T05:33:33;101282.88;;;14.24;55.24
29383;BME280;16365;51.598;7.668;2023-02-21T05:36:00;101272.41;;;14.21;54.94
29383;BME280;16365;51.598;7.668;2023-02-21T05:38:26;101276.34;;;14.20;55.29
29383;BME280;16365;51.598;7.668;2023-02-21T05:40:53;101276.34;;;14.20;55.27
29383;BME280;16365;51.598;7.668;2023-02-21T05:43:20;101275.88;;;14.18;55.44
29383;BME280;16365;51.598;7.668;2023-02-21T05:45:49;101273.09;;;14.18;55.48
29383;BME280;16365;51.598;7.668;2023-02-21T05:48:17;101273.41;;;14.16;54.92
29383;BME280;16365;51.598;7.668;2023-02-21T05:50:44;101269.81;;;14.15;55.50
29383;BME280;16365;51.598;7.668;2023-02-21T05:53:10;101265.41;;;14.14;55.40
29383;BME280;16365;51.598;7.668;2023-02-21T05:55:37;101266.56;;;14.13;55.58
29383;BME280;16365;51.598;7.668;2023-02-21T05:58:03;101267.72;;;14.12;55.52
29383;BME280;16365;51.598;7.668;2023-02-21T06:00:30;101264.94;;;14.12;55.04
29383;BME280;16365;51.598;7.668;2023-02-21T06:02:58;101263.28;;;14.11;55.15
29383;BME280;16365;51.598;7.668;2023-02-21T06:05:25;101267.22;;;14.10;55.40
29383;BME280;16365;51.598;7.668;2023-02-21T06:07:52;101262.81;;;14.09;55.01
29383;BME280;16365;51.598;7.668;2023-02-21T06:10:20;101267.91;;;14.07;55.67
29383;BME280;16365;51.598;7.668;2023-02-21T06:12:47;101260.38;;;14.08;55.90
29383;BME280;16365;51.598;7.668;2023-02-21T06:15:13;101250.69;;;14.05;55.32
29383;BME280;16365;51.598;7.668;2023-02-21T06:17:42;101265.44;;;14.06;55.67
29383;BME280;16365;51.598;7.668;2023-02-21T06:20:12;101257.44;;;14.04;55.99
29383;BME280;16365;51.598;7.668;2023-02-21T06:22:40;101257.91;;;14.06;55.68
29383;BME280;16365;51.598;7.668;2023-02-21T06:25:07;101257.06;;;14.06;55.58
29383;BME280;16365;51.598;7.668;2023-02-21T06:27:33;101253.47;;;14.05;55.49
29383;BME280;16365;51.598;7.668;2023-02-21T06:30:00;101255.09;;;14.06;55.38
29383;BME280;16365;51.598;7.668;2023-02-21T06:32:27;101257.06;;;14.06;55.46
29383;BME280;16365;51.598;7.668;2023-02-21T06:34:54;101257.06;;;14.06;55.80
29383;BME280;16365;51.598;7.668;2023-02-21T06:37:20;101253.47;;;14.05;55.52
29383;BME280;16365;51.598;7.668;2023-02-21T06:39:46;101256.25;;;14.05;55.37
29383;BME280;16365;51.598;7.668;2023-02-21T06:42:17;101262.66;;;14.06;55.64
29383;BME280;16365;51.598;7.668;2023-02-21T06:44:49;101262.19;;;14.04;56.11
29383;BME280;16365;51.598;7.668;2023-02-21T06:47:19;101268.22;;;14.06;55.44
29383;BME280;16365;51.598;7.668;2023-02-21T06:49:46;101272.66;;;14.07;55.87
29383;BME280;16365;51.598;7.668;2023-02-21T06:52:14;101264.28;;;14.07;55.47
29383;BME280;16365;51.598;7.668;2023-02-21T06:54:41;101266.25;;;14.06;55.93
29383;BME280;16365;51.598;7.668;2023-02-21T06:57:13;101272.34;;;14.08;55.99
29383;BME280;16365;51.598;7.668;2023-02-21T06:59:40;101275.13;;;14.08;55.77
29383;BME280;16365;51.598;7.668;2023-02-21T07:02:14;101279.53;;;14.09;55.97
29383;BME280;16365;51.598;7.668;2023-02-21T07:04:47;101271.16;;;14.09;55.41
29383;BME280;16365;51.598;7.668;2023-02-21T07:07:16;101274.78;;;14.10;55.82
29383;BME280;16365;51.598;7.668;2023-02-21T07:09:42;101274.78;;;14.10;55.30
29383;BME280;16365;51.598;7.668;2023-02-21T07:12:10;101284.75;;;14.11;55.59
29383;BME280;16365;51.598;7.668;2023-02-21T07:14:36;101271.63;;;14.11;55.49
29383;BME280;16365;51.598;7.668;2023-02-21T07:17:07;101280.50;;;14.13;55.64
29383;BME280;16365;51.598;7.668;2023-02-21T07:19:35;101277.72;;;14.13;55.93
29383;BME280;16365;51.598;7.668;2023-02-21T07:22:03;101269.00;;;14.15;55.53
29383;BME280;16365;51.598;7.668;2023-02-21T07:24:29;101270.63;;;14.16;56.12
29383;BME280;16365;51.598;7.668;2023-02-21T07:26:56;101263.91;;;14.17;56.08
29383;BME280;16365;51.598;7.668;2023-02-21T07:29:22;101266.69;;;14.17;55.50
29383;BME280;16365;51.598;7.668;2023-02-21T07:31:49;101273.56;;;14.20;55.55
29383;BME280;16365;51.598;7.668;2023-02-21T07:34:19;101275.53;;;14.19;55.69
29383;BME280;16365;51.598;7.668;2023-02-21T07:37:00;101264.84;;;14.21;55.63
29383;BME280;16365;51.598;7.668;2023-02-21T07:39:28;101268.13;;;14.23;55.95
29383;BME280;16365;51.598;7.668;2023-02-21T07:41:54;101274.50;;;14.24;56.00
29383;BME280;16365;51.598;7.668;2023-02-21T07:44:21;101276.97;;;14.25;55.66
29383;BME280;16365;51.598;7.668;2023-02-21T07:46:48;101274.66;;;14.27;55.54
29383;BME280;16365;51.598;7.668;2023-02-21T07:49:14;101272.00;;;14.31;56.18
29383;BME280;16365;51.598;7.668;2023-02-21T07:51:41;101279.22;;;14.32;55.86
29383;BME280;16365;51.598;7.668;2023-02-21T07:54:08;101279.69;;;14.34;55.62
29383;BME280;16365;51.598;7.668;2023-02-21T07:56:34;101270.66;;;14.37;55.73
29383;BME280;16365;51.598;7.668;2023-02-21T07:59:01;101271.94;;;14.39;55.82
29383;BME280;16365;51.598;7.668;2023-02-21T08:01:28;101278.00;;;14.42;56.02
29383;BME280;16365;51.598;7.668;2023-02-21T08:03:57;101268.47;;;14.43;55.67
29383;BME280;16365;51.598;7.668;2023-02-21T08:06:25;101272.53;;;14.45;55.51
29383;BME280;16365;51.598;7.668;2023-02-21T08:08:54;101273.38;;;14.46;55.22
29383;BME280;16365;51.598;7.668;2023-02-21T08:11:21;101279.78;;;14.46;55.13
29383;BME280;16365;51.598;7.668;2023-02-21T08:13:50;101278.63;;;14.47;55.30
29383;BME280;16365;51.598;7.668;2023-02-21T08:16:17;101281.41;;;14.47;55.54
29383;BME280;16365;51.598;7.668;2023-02-21T08:18:46;101270.91;;;14.44;55.34
29383;BME280;16365;51.598;7.668;2023-02-21T08:21:13;101271.72;;;14.45;55.56
29383;BME280;16365;51.598;7.668;2023-02-21T08:23:40;101279.44;;;14.48;55.29
29383;BME280;16365;51.598;7.668;2023-02-21T08:26:10;101273.88;;;14.48;55.55
29383;BME280;16365;51.598;7.668;2023-02-21T08:28:37;101281.56;;;14.51;55.63
29383;BME280;16365;51.598;7.668;2023-02-21T08:31:03;101267.28;;;14.52;55.72
29383;BME280;16365;51.598;7.668;2023-02-21T08:33:30;101274.97;;;14.55;55.60
29383;BME280;16365;51.598;7.668;2023-02-21T08:35:57;101275.44;;;14.57;55.38
29383;BME280;16365;51.598;7.668;2023-02-21T08:38:24;101273.47;;;14.58;55.49
29383;BME280;16365;51.598;7.668;2023-02-21T08:40:52;101271.13;;;14.60;55.30
29383;BME280;16365;51.598;7.668;2023-02-21T08:43:23;101285.94;;;14.60;55.25
29383;BME280;16365;51.598;7.668;2023-02-21T08:45:50;101278.81;;;14.63;55.49
29383;BME280;16365;51.598;7.668;2023-02-21T08:48:23;101280.34;;;14.60;54.95
29383;BME280;16365;51.598;7.668;2023-02-21T08:50:49;101278.81;;;14.63;55.10
29383;BME280;16365;51.598;7.668;2023-02-21T08:53:18;101280.81;;;14.62;55.21
29383;BME280;16365;51.598;7.668;2023-02-21T08:55:45;101270.47;;;14.63;55.29
29383;BME280;16365;51.598;7.668;2023-02-21T08:58:12;101278.81;;;14.63;55.22
29383;BME280;16365;51.598;7.668;2023-02-21T09:00:39;101276.03;;;14.63;54.86
29383;BME280;16365;51.598;7.668;2023-02-21T09:03:06;101272.44;;;14.62;55.25
29383;BME280;16365;51.598;7.668;2023-02-21T09:05:32;101280.00;;;14.62;55.30
29383;BME280;16365;51.598;7.668;2023-02-21T09:08:00;101274.41;;;14.62;54.95
29383;BME280;16365;51.598;7.668;2023-02-21T09:10:29;101290.34;;;14.61;54.99
29383;BME280;16365;51.598;7.668;2023-02-21T09:12:56;101296.75;;;14.62;55.33
29383;BME280;16365;51.598;7.668;2023-02-21T09:15:24;101290.00;;;14.63;54.93
29383;BME280;16365;51.598;7.668;2023-02-21T09:17:51;101291.97;;;14.62;55.14
29383;BME280;16365;51.598;7.668;2023-02-21T09:20:23;101288.38;;;14.62;54.96
29383;BME280;16365;51.598;7.668;2023-02-21T09:22:51;101296.88;;;14.65;54.94
29383;BME280;16365;51.598;7.668;2023-02-21T09:25:33;101297.34;;;14.68;55.38
29383;BME280;16365;51.598;7.668;2023-02-21T09:27:59;101290.28;;;14.70;55.17
29383;BME280;16365;51.598;7.668;2023-02-21T09:30:30;101287.13;;;14.72;54.94
29383;BME280;16365;51.598;7.668;2023-02-21T09:32:57;101285.97;;;14.73;54.84
29383;BME280;16365;51.598;7.668;2023-02-21T09:35:28;101301.91;;;14.72;54.54
29383;BME280;16365;51.598;7.668;2023-02-21T09:37:57;101297.13;;;14.73;54.79
29383;BME280;16365;51.598;7.668;2023-02-21T09:40:44;101304.22;;;14.70;54.68
29383;BME280;16365;51.598;7.668;2023-02-21T09:43:27;101300.59;;;14.70;54.39
29383;BME280;16365;51.598;7.668;2023-02-21T09:45:59;101305.38;;;14.69;54.47
29383;BME280;16365;51.598;7.668;2023-02-21T09:48:27;101300.13;;;14.68;54.57
29383;BME280;16365;51.598;7.668;2023-02-21T09:50:58;101302.94;;;14.68;54.68
29383;BME280;16365;51.598;7.668;2023-02-21T09:53:28;101298.84;;;14.65;54.47
29383;BME280;16365;51.598;7.668;2023-02-21T09:59:21;101310.13;;;14.69;55.01
29383;BME280;16365;51.598;7.668;2023-02-21T10:01:56;101296.88;;;14.65;54.73
29383;BME280;16365;51.598;7.668;2023-02-21T10:10:13;101293.75;;;14.67;54.38
29383;BME280;16365;51.598;7.668;2023-02-21T10:12:45;101299.78;;;14.69;54.77
29383;BME280;16365;51.598;7.668;2023-02-21T10:15:38;101293.38;;;14.69;54.54
29383;BME280;16365;51.598;7.668;2023-02-21T10:18:31;101289.44;;;14.70;54.72
29383;BME280;16365;51.598;7.668;2023-02-21T10:21:01;101299.13;;;14.72;55.01
29383;BME280;16365;51.598;7.668;2023-02-21T10:23:36;101299.13;;;14.72;54.85
29383;BME280;16365;51.598;7.668;2023-02-21T10:26:24;101296.31;;;14.72;54.55
29383;BME280;16365;51.598;7.668;2023-02-21T10:28:53;101303.66;;;14.77;54.91
29383;BME280;16365;51.598;7.668;2023-02-21T10:31:35;101298.91;;;14.77;54.48
29383;BME280;16365;51.598;7.668;2023-02-21T10:34:05;101301.84;;;14.81;54.85
29383;BME280;16365;51.598;7.668;2023-02-21T10:36:36;101303.47;;;14.82;54.89
29383;BME280;16365;51.598;7.668;2023-02-21T10:39:14;101293.78;;;14.79;54.49
29383;BME280;16365;51.598;7.668;2023-02-21T10:41:43;101304.28;;;14.82;54.44
29383;BME280;16365;51.598;7.668;2023-02-21T10:44:18;101293.78;;;14.79;54.52
29383;BME280;16365;51.598;7.668;2023-02-21T10:46:57;101301.34;;;14.79;54.43
29383;BME280;16365;51.598;7.668;2023-02-21T10:50:02;101295.75;;;14.79;54.46
29383;BME280;16365;51.598;7.668;2023-02-21T10:52:36;101300.19;;;14.80;54.46
29383;BME280;16365;51.598;7.668;2023-02-21T10:55:22;101305.28;;;14.78;54.57
29383;BME280;16365;51.598;7.668;2023-02-21T10:58:06;101300.06;;;14.76;54.18
29383;BME280;16365;51.598;7.668;2023-02-21T11:00:38;101304.03;;;14.75;54.71
29383;BME280;16365;51.598;7.668;2023-02-21T11:05:51;101305.84;;;14.71;54.69
29383;BME280;16365;51.598;7.668;2023-02-21T11:11:03;101302.03;;;14.76;55.19
29383;BME280;16365;51.598;7.668;2023-02-21T11:13:31;101304.94;;;14.79;55.03
29383;BME280;16365;51.598;7.668;2023-02-21T11:16:27;101311.03;;;14.81;54.96
29383;BME280;16365;51.598;7.668;2023-02-21T11:19:06;101299.19;;;14.84;54.49
29383;BME280;16365;51.598;7.668;2023-02-21T11:21:33;101299.28;;;14.88;54.97
29383;BME280;16365;51.598;7.668;2023-02-21T11:24:05;101308.00;;;14.86;55.07
29383;BME280;16365;51.598;7.668;2023-02-21T11:26:45;101306.03;;;14.87;55.03
29383;BME280;16365;51.598;7.668;2023-02-21T11:29:21;101296.16;;;14.89;55.05
29383;BME280;16365;51.598;7.668;2023-02-21T11:31:57;101300.25;;;14.92;54.70
29383;BME280;16365;51.598;7.668;2023-02-21T11:34:28;101297.44;;;14.92;54.74
29383;BME280;16365;51.598;7.668;2023-02-21T11:37:01;101303.03;;;14.92;54.53
29383;BME280;16365;51.598;7.668;2023-02-21T11:39:32;101299.88;;;14.94;54.19
29383;BME280;16365;51.598;7.668;2023-02-21T11:42:00;101299.88;;;14.94;54.64
29383;BME280;16365;51.598;7.668;2023-02-21T11:44:32;101287.09;;;14.93;54.74
29383;BME280;16365;51.598;7.668;2023-02-21T11:47:21;101295.00;;;14.90;54.37
29383;BME280;16365;51.598;7.668;2023-02-21T11:50:01;101283.13;;;14.94;54.79
29383;BME280;16365;51.598;7.668;2023-02-21T11:52:41;101284.78;;;14.95;54.69
29383;BME280;16365;51.598;7.668;2023-02-21T11:55:14;101277.34;;;14.99;54.66
29383;BME280;16365;51.598;7.668;2023-02-21T12:00:46;101278.28;;;15.03;54.66
29383;BME280;16365;51.598;7.668;2023-02-21T12:03:31;101266.56;;;15.09;54.93
29383;BME280;16365;51.598;7.668;2023-02-21T12:06:09;101259.81;;;15.10;54.71
29383;BME280;16365;51.598;7.668;2023-02-21T12:08:54;101261.44;;;15.11;54.59
29383;BME280;16365;51.598;7.668;2023-02-21T12:11:44;101254.00;;;15.15;55.05
29383;BME280;16365;51.598;7.668;2023-02-21T12:14:43;101252.03;;;15.16;54.51
29383;BME280;16365;51.598;7.668;2023-02-21T12:17:47;101249.69;;;15.18;54.45
29383;BME280;16365;51.598;7.668;2023-02-21T12:23:42;101242.97;;;15.19;54.40
29383;BME280;16365;51.598;7.668;2023-02-21T12:26:49;101236.22;;;15.20;54.34
29383;BME280;16365;51.598;7.668;2023-02-21T12:29:33;101237.47;;;15.23;54.38
29383;BME280;16365;51.598;7.668;2023-02-21T12:32:32;101235.53;;;15.23;54.57
29383;BME280;16365;51.598;7.668;2023-02-21T12:37:46;101222.25;;;15.32;54.77
29383;BME280;16365;51.598;7.668;2023-02-21T12:40:30;101223.66;;;15.38;54.75
29383;BME280;16365;51.598;7.668;2023-02-21T12:43:32;101222.94;;;15.41;54.31
29383;BME280;16365;51.598;7.668;2023-02-21T12:48:46;101214.94;;;15.52;54.19
29383;BME280;16365;51.598;7.668;2023-02-21T12:51:19;101222.25;;;15.57;54.50
29383;BME280;16365;51.598;7.668;2023-02-21T12:54:06;101213.53;;;15.58;54.14
29383;BME280;16365;51.598;7.668;2023-02-21T12:56:54;101213.34;;;15.63;54.29
29383;BME280;16365;51.598;7.668;2023-02-21T12:59:28;101211.13;;;15.69;53.95
29383;BME280;16365;51.598;7.668;2023-02-21T13:02:10;101209.94;;;15.70;53.87
29383;BME280;16365;51.598;7.668;2023-02-21T13:04:48;101201.69;;;15.74;54.04
29383;BME280;16365;51.598;7.668;2023-02-21T13:10:19;101201.56;;;15.82;53.57
29383;BME280;16365;51.598;7.668;2023-02-21T13:12:57;101193.38;;;15.89;54.22
29383;BME280;16365;51.598;7.668;2023-02-21T13:15:27;101195.13;;;15.94;53.68
29383;BME280;16365;51.598;7.668;2023-02-21T13:18:06;101190.44;;;15.98;53.57
29383;BME280;16365;51.598;7.668;2023-02-21T13:20:43;101195.44;;;16.05;53.77
29383;BME280;16365;51.598;7.668;2023-02-21T13:29:42;101177.00;;;16.16;53.80
29383;BME280;16365;51.598;7.668;2023-02-21T13:32:15;101175.84;;;16.17;53.60
29383;BME280;16365;51.598;7.668;2023-02-21T13:34:53;101173.16;;;16.21;53.34
29383;BME280;16365;51.598;7.668;2023-02-21T13:37:23;101159.25;;;16.24;53.50
29383;BME280;16365;51.598;7.668;2023-02-21T13:39:55;101166.56;;;16.29;53.73
29383;BME280;16365;51.598;7.668;2023-02-21T13:42:28;101161.09;;;16.32;53.63
29383;BME280;16365;51.598;7.668;2023-02-21T13:45:08;101154.69;;;16.32;52.82
29383;BME280;16365;51.598;7.668;2023-02-21T13:53:28;101150.66;;;16.45;52.80
29383;BME280;16365;51.598;7.668;2023-02-21T13:58:49;101145.72;;;16.54;52.24
29383;BME280;16365;51.598;7.668;2023-02-21T14:07:07;101144.13;;;16.69;53.26
29383;BME280;16365;51.598;7.668;2023-02-21T14:09:40;101139.81;;;16.72;53.29
29383;BME280;16365;51.598;7.668;2023-02-21T14:12:09;101137.91;;;16.76;53.41
29383;BME280;16365;51.598;7.668;2023-02-21T14:14:41;101137.19;;;16.79;52.80
29383;BME280;16365;51.598;7.668;2023-02-21T14:17:11;101137.66;;;16.81;52.42
29383;BME280;16365;51.598;7.668;2023-02-21T14:22:30;101131.34;;;16.84;52.02
29383;BME280;16365;51.598;7.668;2023-02-21T14:25:06;101132.25;;;16.88;52.13
29383;BME280;16365;51.598;7.668;2023-02-21T14:27:37;101138.38;;;16.93;52.88
29383;BME280;16365;51.598;7.668;2023-02-21T14:32:41;101134.84;;;16.96;52.00
29383;BME280;16365;51.598;7.668;2023-02-21T14:35:23;101132.03;;;16.96;51.60
29383;BME280;16365;51.598;7.668;2023-02-21T14:38:00;101136.50;;;16.98;51.91
29383;BME280;16365;51.598;7.668;2023-02-21T14:43:22;101130.78;;;16.94;50.93
29383;BME280;16365;51.598;7.668;2023-02-21T14:57:41;101118.94;;;16.85;50.96
29383;BME280;16365;51.598;7.668;2023-02-21T15:01:07;101119.66;;;16.82;50.82
29383;BME280;16365;51.598;7.668;2023-02-21T15:03:43;101114.44;;;16.80;51.26